createdAt,value
2023-05-03T15:03:41.296Z,8.70
2023-05-03T15:13:48.623Z,16.90
2023-05-03T15:23:55.538Z,11.20
2023-05-03T15:34:02.997Z,7.80
2023-05-03T15:44:11.066Z,8.75
2023-05-03T15:54:17.525Z,7.00
2023-05-03T16:04:42.729Z,12.50
2023-05-03T16:14:49.529Z,9.50
2023-05-03T16:24:56.040Z,8.80
2023-05-03T16:35:04.815Z,5.90
2023-05-03T16:45:12.133Z,8.60
2023-05-03T16:55:23.261Z,5.80
2023-05-03T17:05:34.276Z,5.70
2023-05-03T17:15:40.751Z,28.90
2023-05-03T17:25:47.327Z,34.00
2023-05-03T17:35:54.572Z,17.90
2023-05-03T17:46:12.669Z,6.80
2023-05-03T17:56:20.050Z,8.70
2023-05-03T18:06:26.695Z,6.00
2023-05-03T18:16:33.741Z,10.10
2023-05-03T18:26:40.247Z,14.10
2023-05-03T18:36:46.780Z,17.80
2023-05-03T18:46:53.798Z,20.10
2023-05-03T18:57:04.149Z,24.60
2023-05-03T19:07:11.772Z,28.80
2023-05-03T19:17:18.310Z,31.10
2023-05-03T19:27:24.743Z,27.60
2023-05-03T19:37:32.418Z,24.80
2023-05-03T19:47:39.190Z,22.70
2023-05-03T19:57:45.715Z,25.20
2023-05-03T20:07:53.988Z,32.80
2023-05-03T20:18:00.494Z,26.50
2023-05-03T20:28:06.957Z,29.80
2023-05-03T20:38:13.482Z,31.40
2023-05-03T20:48:20.101Z,35.60
2023-05-03T20:58:26.617Z,34.20
2023-05-03T21:08:33.165Z,36.60
2023-05-03T21:18:39.630Z,38.50
2023-05-03T21:28:46.089Z,39.80
2023-05-03T21:38:53.136Z,43.30
2023-05-03T21:48:59.745Z,42.50
2023-05-03T21:59:06.990Z,38.60
2023-05-03T22:09:13.562Z,34.80
2023-05-03T22:19:20.021Z,32.60
2023-05-03T22:29:26.683Z,36.00
2023-05-03T22:39:33.601Z,36.60
2023-05-03T22:49:40.087Z,39.70
2023-05-03T22:59:47.070Z,33.90
2023-05-03T23:10:03.074Z,26.20
2023-05-03T23:20:11.370Z,25.70
2023-05-03T23:30:17.905Z,27.10
2023-05-03T23:40:25.351Z,26.10
2023-05-03T23:50:32.191Z,30.90
